createdAt,value
2022-08-26T00:00:42.205Z,92.61
2022-08-26T00:03:45.295Z,92.99
2022-08-26T00:06:50.711Z,91.68
2022-08-26T00:09:56.878Z,90.90
2022-08-26T00:13:00.272Z,90.45
2022-08-26T00:16:05.483Z,91.00
2022-08-26T00:19:12.600Z,91.04
2022-08-26T00:22:21.503Z,90.76
2022-08-26T00:25:27.908Z,91.49
2022-08-26T00:28:33.349Z,91.27
2022-08-26T00:31:36.292Z,91.21
2022-08-26T00:34:40.070Z,91.71
2022-08-26T00:37:47.714Z,91.11
2022-08-26T00:40:54.144Z,91.36
2022-08-26T00:43:57.425Z,91.64
2022-08-26T00:47:05.733Z,92.16
2022-08-26T00:50:14.800Z,92.48
2022-08-26T00:53:24.011Z,92.60
2022-08-26T00:56:38.000Z,93.06
2022-08-26T00:59:42.367Z,93.69
2022-08-26T01:02:47.951Z,94.38
2022-08-26T01:05:57.232Z,94.96
2022-08-26T01:09:00.401Z,95.84
2022-08-26T01:12:03.929Z,96.52
2022-08-26T01:15:10.443Z,96.53
2022-08-26T01:18:15.145Z,97.29
2022-08-26T01:21:30.299Z,97.47
2022-08-26T01:24:33.135Z,97.54
2022-08-26T01:27:38.795Z,97.34
2022-08-26T01:30:44.190Z,98.30
2022-08-26T01:34:02.171Z,98.12
2022-08-26T01:37:13.691Z,98.15
2022-08-26T01:40:25.691Z,98.07
2022-08-26T01:43:31.553Z,97.99
2022-08-26T01:46:34.728Z,98.10
2022-08-26T01:49:43.816Z,98.65
2022-08-26T01:52:54.371Z,98.63
2022-08-26T01:56:02.424Z,98.96
2022-08-26T01:59:16.486Z,99.29
2022-08-26T02:02:21.157Z,99.40
2022-08-26T02:05:58.483Z,99.49
2022-08-26T02:09:02.429Z,99.68
2022-08-26T02:12:06.079Z,99.97
2022-08-26T02:15:13.720Z,100.00
2022-08-26T02:18:17.097Z,100.00
2022-08-26T02:21:22.227Z,100.00
2022-08-26T02:24:55.161Z,100.00
2022-08-26T02:27:58.205Z,100.00
2022-08-26T02:31:02.660Z,100.00
2022-08-26T02:34:15.587Z,100.00
2022-08-26T02:37:19.175Z,100.00
2022-08-26T02:40:31.150Z,100.00
2022-08-26T02:43:34.323Z,100.00
2022-08-26T02:46:38.171Z,100.00
2022-08-26T02:50:06.363Z,100.00
2022-08-26T02:53:10.423Z,100.00
2022-08-26T02:56:13.994Z,100.00
2022-08-26T02:59:19.061Z,100.00
2022-08-26T03:02:22.334Z,100.00
2022-08-26T03:05:25.494Z,100.00
2022-08-26T03:08:28.585Z,100.00
2022-08-26T03:11:33.223Z,100.00
2022-08-26T03:14:36.399Z,100.00
2022-08-26T03:17:39.683Z,100.00
2022-08-26T03:20:43.127Z,100.00
2022-08-26T03:23:47.031Z,100.00
2022-08-26T03:26:52.962Z,100.00
2022-08-26T03:30:16.936Z,100.00
2022-08-26T03:33:22.899Z,100.00
2022-08-26T03:36:28.699Z,100.00
2022-08-26T03:39:32.622Z,100.00
2022-08-26T03:42:36.836Z,100.00
2022-08-26T03:45:40.761Z,100.00
2022-08-26T03:48:46.339Z,100.00
2022-08-26T03:51:51.941Z,100.00
2022-08-26T03:54:54.649Z,100.00
2022-08-26T03:57:58.099Z,100.00
2022-08-26T04:01:00.626Z,100.00
2022-08-26T04:04:06.797Z,100.00
2022-08-26T04:07:12.475Z,100.00
2022-08-26T04:10:20.070Z,100.00
2022-08-26T04:13:25.678Z,100.00
2022-08-26T04:16:29.549Z,100.00
2022-08-26T04:19:33.095Z,100.00
2022-08-26T04:22:36.572Z,100.00
2022-08-26T04:25:40.568Z,100.00
2022-08-26T04:28:43.559Z,100.00
2022-08-26T04:31:50.053Z,100.00
2022-08-26T04:35:00.834Z,100.00
2022-08-26T04:38:05.879Z,100.00
2022-08-26T04:41:14.878Z,100.00
2022-08-26T04:44:20.759Z,100.00
2022-08-26T04:47:28.062Z,100.00
2022-08-26T04:50:35.060Z,100.00
2022-08-26T04:53:38.711Z,100.00
2022-08-26T04:56:47.599Z,100.00
2022-08-26T04:59:51.164Z,100.00
2022-08-26T05:02:56.430Z,100.00
2022-08-26T05:06:05.274Z,100.00
2022-08-26T05:09:08.017Z,99.98
2022-08-26T05:12:31.502Z,98.50
2022-08-26T05:15:35.901Z,97.32
2022-08-26T05:18:43.606Z,95.75
2022-08-26T05:21:48.489Z,94.16
2022-08-26T05:24:51.270Z,93.99
2022-08-26T05:27:53.930Z,91.74
2022-08-26T05:30:59.904Z,89.92
2022-08-26T05:34:04.789Z,90.18
2022-08-26T05:37:07.879Z,88.00
2022-08-26T05:40:13.770Z,86.06
2022-08-26T05:43:17.239Z,85.35
2022-08-26T05:46:23.644Z,85.51
2022-08-26T05:49:29.851Z,83.58
2022-08-26T05:52:33.907Z,84.04
2022-08-26T05:56:04.524Z,84.04
2022-08-26T05:59:11.665Z,83.49
2022-08-26T06:02:17.635Z,80.37
2022-08-26T06:05:30.253Z,79.91
2022-08-26T06:08:35.136Z,80.35
2022-08-26T06:11:39.330Z,78.89
2022-08-26T06:14:42.799Z,79.03
2022-08-26T06:17:49.251Z,77.59
2022-08-26T06:20:56.889Z,75.97
2022-08-26T06:24:26.941Z,75.93
2022-08-26T06:27:32.982Z,74.79
2022-08-26T06:30:40.731Z,72.15
2022-08-26T06:33:44.976Z,72.21
2022-08-26T06:37:09.064Z,69.35
2022-08-26T06:40:47.731Z,68.46
2022-08-26T06:44:13.599Z,67.71
2022-08-26T06:47:47.720Z,66.02
2022-08-26T06:51:35.658Z,64.43
2022-08-26T06:55:03.474Z,62.08
2022-08-26T06:58:14.563Z,60.38
2022-08-26T07:01:28.644Z,58.83
2022-08-26T07:04:33.756Z,57.79
2022-08-26T07:07:38.789Z,56.23
2022-08-26T07:10:43.207Z,55.78
2022-08-26T07:13:50.572Z,54.07
2022-08-26T07:17:12.175Z,53.52
2022-08-26T07:20:22.775Z,51.84
2022-08-26T07:23:39.350Z,51.00
2022-08-26T07:26:43.873Z,50.01
2022-08-26T07:29:48.698Z,50.56
2022-08-26T07:32:59.203Z,48.43
2022-08-26T07:36:05.852Z,49.52
2022-08-26T07:39:51.681Z,47.60
2022-08-26T07:43:17.958Z,46.42
2022-08-26T07:46:53.557Z,46.10
2022-08-26T07:50:49.141Z,46.24
2022-08-26T07:54:26.882Z,43.65
2022-08-26T07:57:53.357Z,42.65
2022-08-26T08:01:40.351Z,41.26
2022-08-26T08:05:27.310Z,42.37
2022-08-26T08:08:42.571Z,40.55
2022-08-26T08:11:46.751Z,39.21
2022-08-26T08:14:53.162Z,40.41
2022-08-26T08:18:01.271Z,37.72
2022-08-26T08:21:21.250Z,37.91
2022-08-26T08:24:27.660Z,36.45
2022-08-26T08:27:34.172Z,36.38
2022-08-26T08:30:40.754Z,33.99
2022-08-26T08:33:43.620Z,33.83
2022-08-26T08:36:50.411Z,33.38
2022-08-26T08:39:58.968Z,34.02
2022-08-26T08:43:15.504Z,31.65
2022-08-26T08:46:19.653Z,31.38
2022-08-26T08:49:26.166Z,31.74
2022-08-26T08:52:37.065Z,29.61
2022-08-26T08:56:14.711Z,30.90
2022-08-26T08:59:20.447Z,30.30
2022-08-26T09:02:35.932Z,28.63
2022-08-26T09:05:48.722Z,31.05
2022-08-26T09:09:38.391Z,28.78
2022-08-26T09:12:46.235Z,27.99
2022-08-26T09:15:59.417Z,27.51
2022-08-26T09:19:20.267Z,26.34
2022-08-26T09:22:36.267Z,26.13
2022-08-26T09:29:04.957Z,26.87
2022-08-26T09:32:21.357Z,27.01
2022-08-26T09:35:28.951Z,26.11
2022-08-26T09:38:46.679Z,26.92
2022-08-26T09:42:26.296Z,26.24
2022-08-26T09:45:29.931Z,25.67
2022-08-26T09:48:40.558Z,25.18
2022-08-26T09:51:44.602Z,25.64
2022-08-26T09:55:14.045Z,24.87
2022-08-26T09:58:39.583Z,25.06
2022-08-26T10:01:45.524Z,25.77
2022-08-26T10:04:57.589Z,25.60
2022-08-26T10:08:20.563Z,23.81
2022-08-26T10:11:32.015Z,23.75
2022-08-26T10:14:48.043Z,22.70
2022-08-26T10:18:06.743Z,24.48
2022-08-26T10:21:23.845Z,22.07
2022-08-26T10:24:46.376Z,24.20
2022-08-26T10:28:00.990Z,25.87
2022-08-26T10:31:16.125Z,23.63
2022-08-26T10:34:21.144Z,23.02
2022-08-26T10:37:33.686Z,22.71
2022-08-26T10:40:55.109Z,22.95
2022-08-26T10:44:22.074Z,22.42
2022-08-26T10:47:45.186Z,21.95
2022-08-26T10:51:03.299Z,21.63
2022-08-26T10:54:15.758Z,20.83
2022-08-26T10:57:33.742Z,21.12
2022-08-26T11:01:10.514Z,22.26
2022-08-26T11:04:42.362Z,22.16
2022-08-26T11:07:56.229Z,21.52
2022-08-26T11:11:03.063Z,20.62
2022-08-26T11:14:28.376Z,22.95
2022-08-26T11:17:57.950Z,23.24
2022-08-26T11:21:44.255Z,22.15
2022-08-26T11:24:53.858Z,21.41
2022-08-26T11:28:08.656Z,19.94
2022-08-26T11:31:26.061Z,20.09
2022-08-26T11:34:53.298Z,22.76
2022-08-26T11:38:04.245Z,21.30
2022-08-26T11:41:17.657Z,19.34
2022-08-26T11:44:27.566Z,19.45
2022-08-26T11:47:32.075Z,20.82
2022-08-26T11:50:35.216Z,20.08
2022-08-26T11:53:47.207Z,19.92
2022-08-26T11:56:54.855Z,21.17
2022-08-26T11:59:57.899Z,19.84
2022-08-26T12:03:07.308Z,19.75
2022-08-26T12:06:22.275Z,19.31
2022-08-26T12:09:33.086Z,20.12
2022-08-26T12:13:05.699Z,18.93
2022-08-26T12:16:08.902Z,18.43
2022-08-26T12:19:27.479Z,18.61
2022-08-26T12:22:38.433Z,19.46
2022-08-26T12:25:43.281Z,19.22
2022-08-26T12:29:19.998Z,19.45
2022-08-26T12:32:29.238Z,20.43
2022-08-26T12:35:37.023Z,19.56
2022-08-26T12:38:41.356Z,21.43
2022-08-26T12:41:51.325Z,21.62
2022-08-26T12:45:08.585Z,22.81
2022-08-26T12:48:38.707Z,23.59
2022-08-26T12:52:02.548Z,23.78
2022-08-26T12:55:25.843Z,24.07
2022-08-26T12:58:40.458Z,23.66
2022-08-26T13:01:47.202Z,25.15
2022-08-26T13:05:00.732Z,26.04
2022-08-26T13:08:26.690Z,26.08
2022-08-26T13:11:35.523Z,26.96
2022-08-26T13:14:40.603Z,25.74
2022-08-26T13:17:43.593Z,25.91
2022-08-26T13:20:48.712Z,26.49
2022-08-26T13:23:57.089Z,24.58
2022-08-26T13:27:24.520Z,24.74
2022-08-26T13:30:37.048Z,26.83
2022-08-26T13:33:45.504Z,26.07
2022-08-26T13:37:08.512Z,26.23
2022-08-26T13:40:13.393Z,26.17
2022-08-26T13:43:28.439Z,24.84
2022-08-26T13:46:35.359Z,26.27
2022-08-26T13:49:51.891Z,26.68
2022-08-26T13:53:02.257Z,27.16
2022-08-26T13:56:46.247Z,26.80
2022-08-26T14:00:02.422Z,26.26
2022-08-26T14:03:24.899Z,26.54
2022-08-26T14:06:35.017Z,26.24
2022-08-26T14:09:50.276Z,26.75
2022-08-26T14:12:54.069Z,27.77
2022-08-26T14:20:32.941Z,27.69
2022-08-26T14:23:37.936Z,27.03
2022-08-26T14:26:48.736Z,26.45
2022-08-26T14:29:57.774Z,26.89
2022-08-26T14:33:24.386Z,26.88
2022-08-26T14:36:42.284Z,26.59
2022-08-26T14:39:52.178Z,28.37
2022-08-26T14:42:58.681Z,27.54
2022-08-26T14:46:32.375Z,27.98
2022-08-26T14:49:39.276Z,28.38
2022-08-26T14:53:04.799Z,29.06
2022-08-26T14:56:30.953Z,28.14
2022-08-26T15:00:01.458Z,28.47
2022-08-26T15:06:38.235Z,28.56
2022-08-26T15:09:56.707Z,28.19
2022-08-26T15:13:11.363Z,28.50
2022-08-26T15:16:39.244Z,29.11
2022-08-26T15:20:09.775Z,32.22
2022-08-26T15:23:36.722Z,28.74
2022-08-26T15:27:02.793Z,28.71
2022-08-26T15:30:19.361Z,30.65
2022-08-26T15:33:45.861Z,29.53
2022-08-26T15:37:24.731Z,29.23
2022-08-26T15:40:51.905Z,29.51
2022-08-26T15:44:12.980Z,29.64
2022-08-26T15:47:32.416Z,31.87
2022-08-26T15:51:25.565Z,30.42
2022-08-26T15:54:45.964Z,30.63
2022-08-26T15:57:53.564Z,31.31
2022-08-26T16:01:10.892Z,30.85
2022-08-26T16:04:39.949Z,32.28
2022-08-26T16:07:44.644Z,32.00
2022-08-26T16:11:03.347Z,33.43
2022-08-26T16:14:10.579Z,32.44
2022-08-26T16:17:14.948Z,34.07
2022-08-26T16:20:33.981Z,33.01
2022-08-26T16:23:39.114Z,35.31
2022-08-26T16:26:55.167Z,34.06
2022-08-26T16:29:59.316Z,33.84
2022-08-26T16:33:03.029Z,36.01
2022-08-26T16:36:09.178Z,37.60
2022-08-26T16:39:44.897Z,37.31
2022-08-26T16:43:02.931Z,38.87
2022-08-26T16:46:29.833Z,39.52
2022-08-26T16:49:40.677Z,39.42
2022-08-26T16:52:55.580Z,40.34
2022-08-26T16:55:59.239Z,40.68
2022-08-26T16:59:06.343Z,40.41
2022-08-26T17:02:11.926Z,41.32
2022-08-26T17:05:18.977Z,40.71
2022-08-26T17:08:28.688Z,40.58
2022-08-26T17:11:31.881Z,40.84
2022-08-26T17:14:37.978Z,40.97
2022-08-26T17:17:41.603Z,41.03
2022-08-26T17:20:45.651Z,41.91
2022-08-26T17:23:52.622Z,40.22
2022-08-26T17:26:56.276Z,40.82
2022-08-26T17:29:59.576Z,41.16
2022-08-26T17:33:10.891Z,41.28
2022-08-26T17:36:15.842Z,42.86
2022-08-26T17:39:22.380Z,41.95
2022-08-26T17:42:31.521Z,42.47
2022-08-26T17:45:39.417Z,43.72
2022-08-26T17:48:48.852Z,44.29
2022-08-26T17:51:52.087Z,43.26
2022-08-26T17:54:56.443Z,44.10
2022-08-26T17:58:23.330Z,43.61
2022-08-26T18:01:31.929Z,44.50
2022-08-26T18:04:41.802Z,44.66
2022-08-26T18:07:46.755Z,46.37
2022-08-26T18:10:59.368Z,47.51
2022-08-26T18:14:01.922Z,49.27
2022-08-26T18:17:08.435Z,49.93
2022-08-26T18:20:19.609Z,50.52
2022-08-26T18:23:28.689Z,51.66
2022-08-26T18:26:56.248Z,50.79
2022-08-26T18:30:23.391Z,52.07
2022-08-26T18:33:27.537Z,54.68
2022-08-26T18:36:33.956Z,54.62
2022-08-26T18:39:36.950Z,56.95
2022-08-26T18:42:42.277Z,57.79
2022-08-26T18:45:46.558Z,58.79
2022-08-26T18:48:57.086Z,58.98
2022-08-26T18:52:24.928Z,59.61
2022-08-26T18:55:40.377Z,59.49
2022-08-26T18:58:45.778Z,60.75
2022-08-26T19:01:50.748Z,60.68
2022-08-26T19:04:53.762Z,60.64
2022-08-26T19:08:08.533Z,60.77
2022-08-26T19:11:15.621Z,61.57
2022-08-26T19:14:21.059Z,62.45
2022-08-26T19:17:24.149Z,61.80
2022-08-26T19:20:30.285Z,62.73
2022-08-26T19:23:34.256Z,64.10
2022-08-26T19:26:40.747Z,63.14
2022-08-26T19:30:07.221Z,63.69
2022-08-26T19:33:30.436Z,63.92
2022-08-26T19:36:48.356Z,63.98
2022-08-26T19:39:54.350Z,63.59
2022-08-26T19:42:59.953Z,64.41
2022-08-26T19:46:30.703Z,64.32
2022-08-26T19:50:11.744Z,63.42
2022-08-26T19:53:19.820Z,64.23
2022-08-26T19:56:28.421Z,64.50
2022-08-26T19:59:36.336Z,64.62
2022-08-26T20:02:44.276Z,65.03
2022-08-26T20:05:47.778Z,65.93
2022-08-26T20:08:52.120Z,64.44
2022-08-26T20:12:02.532Z,64.84
2022-08-26T20:15:09.977Z,65.28
2022-08-26T20:18:35.819Z,65.83
2022-08-26T20:21:51.058Z,65.72
2022-08-26T20:24:57.318Z,66.18
2022-08-26T20:28:00.924Z,66.92
2022-08-26T20:31:04.716Z,67.63
2022-08-26T20:34:09.769Z,66.82
2022-08-26T20:37:13.204Z,66.23
2022-08-26T20:40:15.993Z,65.85
2022-08-26T20:43:28.683Z,66.72
2022-08-26T20:46:37.845Z,65.87
2022-08-26T20:50:09.835Z,65.52
2022-08-26T20:53:14.601Z,64.56
2022-08-26T20:56:22.585Z,64.40
2022-08-26T20:59:26.177Z,66.20
2022-08-26T21:02:35.394Z,65.68
2022-08-26T21:05:40.544Z,66.25
2022-08-26T21:09:11.406Z,65.75
2022-08-26T21:12:28.893Z,67.36
2022-08-26T21:15:32.030Z,66.78
2022-08-26T21:18:36.951Z,67.97
2022-08-26T21:21:41.102Z,68.35
2022-08-26T21:24:46.715Z,68.27
2022-08-26T21:27:49.499Z,66.84
2022-08-26T21:30:52.355Z,67.01
2022-08-26T21:33:56.791Z,67.70
2022-08-26T21:37:00.532Z,67.49
2022-08-26T21:40:05.421Z,67.80
2022-08-26T21:43:08.334Z,67.01
2022-08-26T21:46:22.604Z,66.93
2022-08-26T21:49:29.637Z,67.98
2022-08-26T21:52:32.568Z,68.60
2022-08-26T21:55:36.370Z,67.80
2022-08-26T21:58:46.651Z,67.94
2022-08-26T22:01:50.407Z,68.03
2022-08-26T22:04:56.443Z,68.78
2022-08-26T22:08:01.302Z,69.26
2022-08-26T22:11:05.291Z,69.91
2022-08-26T22:14:08.719Z,69.70
2022-08-26T22:17:14.235Z,69.43
2022-08-26T22:20:19.219Z,70.60
2022-08-26T22:23:25.258Z,70.54
2022-08-26T22:26:31.198Z,70.02
2022-08-26T22:29:34.481Z,70.07
2022-08-26T22:32:39.617Z,69.87
2022-08-26T22:35:48.704Z,70.86
2022-08-26T22:38:56.304Z,70.36
2022-08-26T22:42:19.477Z,71.15
2022-08-26T22:45:22.824Z,71.86
2022-08-26T22:48:26.876Z,70.10
2022-08-26T22:51:29.996Z,68.86
2022-08-26T22:54:35.107Z,69.99
2022-08-26T22:57:38.181Z,70.32
2022-08-26T23:00:43.361Z,71.16
2022-08-26T23:03:46.629Z,71.21
2022-08-26T23:06:49.842Z,72.65
2022-08-26T23:09:54.586Z,72.00
2022-08-26T23:12:59.992Z,72.92
2022-08-26T23:16:07.346Z,72.17
2022-08-26T23:19:12.867Z,73.87
2022-08-26T23:22:17.908Z,73.94
2022-08-26T23:25:21.572Z,74.99
2022-08-26T23:28:27.876Z,74.86
2022-08-26T23:31:34.030Z,75.43
2022-08-26T23:34:55.660Z,74.60
2022-08-26T23:38:02.281Z,74.99
2022-08-26T23:41:05.861Z,75.05
2022-08-26T23:44:09.094Z,75.85
2022-08-26T23:47:13.704Z,75.31
2022-08-26T23:50:47.662Z,76.05
2022-08-26T23:53:51.172Z,75.52
2022-08-26T23:57:20.076Z,76.05
